sensor_id;sensor_type;location;lat;lon;timestamp;P1;durP1;ratioP1;P2;durP2;ratioP2
3745;SDS011;1888;49.890;10.884;2022-10-17T04:37:16;38.80;;;12.37;;
3745;SDS011;1888;49.890;10.884;2022-10-17T04:39:44;38.37;;;11.13;;
3745;SDS011;1888;49.890;10.884;2022-10-17T04:42:11;38.50;;;11.80;;
3745;SDS011;1888;49.890;10.884;2022-10-17T04:44:38;38.77;;;12.27;;
3745;SDS011;1888;49.890;10.884;2022-10-17T04:47:06;38.50;;;12.07;;
3745;SDS011;1888;49.890;10.884;2022-10-17T04:49:34;38.50;;;11.43;;
3745;SDS011;1888;49.890;10.884;2022-10-17T04:52:01;38.17;;;10.83;;
3745;SDS011;1888;49.890;10.884;2022-10-17T04:54:29;38.37;;;11.30;;
3745;SDS011;1888;49.890;10.884;2022-10-17T04:56:56;38.70;;;12.07;;
3745;SDS011;1888;49.890;10.884;2022-10-17T04:59:24;38.50;;;11.57;;
3745;SDS011;1888;49.890;10.884;2022-10-17T05:01:51;38.40;;;11.70;;
3745;SDS011;1888;49.890;10.884;2022-10-17T05:04:18;38.37;;;11.43;;
3745;SDS011;1888;49.890;10.884;2022-10-17T05:06:45;38.30;;;11.47;;
3745;SDS011;1888;49.890;10.884;2022-10-17T05:09:12;38.50;;;12.13;;
3745;SDS011;1888;49.890;10.884;2022-10-17T05:11:41;38.53;;;11.77;;
3745;SDS011;1888;49.890;10.884;2022-10-17T05:14:08;38.43;;;11.77;;
3745;SDS011;1888;49.890;10.884;2022-10-17T05:16:35;38.57;;;12.03;;
3745;SDS011;1888;49.890;10.884;2022-10-17T05:19:02;38.70;;;12.20;;
3745;SDS011;1888;49.890;10.884;2022-10-17T05:21:30;38.17;;;11.50;;
3745;SDS011;1888;49.890;10.884;2022-10-17T05:23:57;38.70;;;12.57;;
3745;SDS011;1888;49.890;10.884;2022-10-17T05:26:25;38.80;;;12.90;;
3745;SDS011;1888;49.890;10.884;2022-10-17T05:28:53;38.37;;;12.17;;
3745;SDS011;1888;49.890;10.884;2022-10-17T05:31:21;38.47;;;12.40;;
3745;SDS011;1888;49.890;10.884;2022-10-17T05:33:48;38.70;;;12.60;;
3745;SDS011;1888;49.890;10.884;2022-10-17T05:36:15;38.63;;;12.37;;
3745;SDS011;1888;49.890;10.884;2022-10-17T05:38:42;38.30;;;11.83;;
3745;SDS011;1888;49.890;10.884;2022-10-17T05:41:09;38.53;;;12.40;;
3745;SDS011;1888;49.890;10.884;2022-10-17T05:43:37;38.70;;;12.57;;
3745;SDS011;1888;49.890;10.884;2022-10-17T05:46:05;39.07;;;13.10;;
3745;SDS011;1888;49.890;10.884;2022-10-17T05:48:32;38.40;;;11.93;;
3745;SDS011;1888;49.890;10.884;2022-10-17T05:51:01;38.77;;;13.07;;
3745;SDS011;1888;49.890;10.884;2022-10-17T05:53:29;38.57;;;12.40;;
3745;SDS011;1888;49.890;10.884;2022-10-17T05:55:57;38.70;;;12.83;;
3745;SDS011;1888;49.890;10.884;2022-10-17T05:58:24;38.67;;;12.97;;
3745;SDS011;1888;49.890;10.884;2022-10-17T06:00:55;38.77;;;13.07;;
3745;SDS011;1888;49.890;10.884;2022-10-17T06:03:24;38.90;;;13.07;;
3745;SDS011;1888;49.890;10.884;2022-10-17T06:05:51;38.33;;;11.63;;
3745;SDS011;1888;49.890;10.884;2022-10-17T06:08:19;39.00;;;12.83;;
3745;SDS011;1888;49.890;10.884;2022-10-17T06:10:46;38.80;;;12.80;;
3745;SDS011;1888;49.890;10.884;2022-10-17T06:13:14;38.83;;;11.77;;
3745;SDS011;1888;49.890;10.884;2022-10-17T06:15:41;38.97;;;11.20;;
3745;SDS011;1888;49.890;10.884;2022-10-17T06:18:08;38.97;;;10.87;;
3745;SDS011;1888;49.890;10.884;2022-10-17T06:20:37;39.00;;;11.00;;
3745;SDS011;1888;49.890;10.884;2022-10-17T06:23:04;38.73;;;9.97;;
3745;SDS011;1888;49.890;10.884;2022-10-17T06:25:31;39.33;;;10.93;;
3745;SDS011;1888;49.890;10.884;2022-10-17T06:27:58;39.87;;;12.50;;
3745;SDS011;1888;49.890;10.884;2022-10-17T06:30:25;40.17;;;12.00;;
3745;SDS011;1888;49.890;10.884;2022-10-17T06:32:54;40.27;;;11.93;;
3745;SDS011;1888;49.890;10.884;2022-10-17T06:35:21;41.37;;;14.40;;
3745;SDS011;1888;49.890;10.884;2022-10-17T06:37:51;41.10;;;13.90;;
3745;SDS011;1888;49.890;10.884;2022-10-17T06:40:18;41.50;;;15.17;;
3745;SDS011;1888;49.890;10.884;2022-10-17T06:42:45;41.07;;;15.57;;
3745;SDS011;1888;49.890;10.884;2022-10-17T06:45:12;41.60;;;16.10;;
3745;SDS011;1888;49.890;10.884;2022-10-17T06:47:40;42.87;;;21.17;;
3745;SDS011;1888;49.890;10.884;2022-10-17T06:50:07;42.27;;;19.33;;
3745;SDS011;1888;49.890;10.884;2022-10-17T06:52:34;45.30;;;28.73;;
3745;SDS011;1888;49.890;10.884;2022-10-17T06:55:05;48.87;;;39.17;;
3745;SDS011;1888;49.890;10.884;2022-10-17T06:57:32;49.00;;;39.63;;
3745;SDS011;1888;49.890;10.884;2022-10-17T06:59:59;48.80;;;39.93;;
3745;SDS011;1888;49.890;10.884;2022-10-17T07:02:26;49.83;;;44.30;;
3745;SDS011;1888;49.890;10.884;2022-10-17T07:04:53;56.97;;;51.20;;
3745;SDS011;1888;49.890;10.884;2022-10-17T07:07:21;65.83;;;59.73;;
3745;SDS011;1888;49.890;10.884;2022-10-17T07:09:48;59.17;;;53.30;;
3745;SDS011;1888;49.890;10.884;2022-10-17T07:12:16;64.47;;;58.40;;
3745;SDS011;1888;49.890;10.884;2022-10-17T07:14:43;70.77;;;64.40;;
3745;SDS011;1888;49.890;10.884;2022-10-17T07:17:11;90.17;;;82.90;;
3745;SDS011;1888;49.890;10.884;2022-10-17T07:19:38;93.23;;;85.87;;
3745;SDS011;1888;49.890;10.884;2022-10-17T07:22:07;96.93;;;89.37;;
3745;SDS011;1888;49.890;10.884;2022-10-17T07:24:34;90.40;;;83.13;;
3745;SDS011;1888;49.890;10.884;2022-10-17T07:27:01;82.37;;;75.47;;
3745;SDS011;1888;49.890;10.884;2022-10-17T07:29:30;78.60;;;71.83;;
3745;SDS011;1888;49.890;10.884;2022-10-17T07:31:57;74.57;;;68.03;;
3745;SDS011;1888;49.890;10.884;2022-10-17T07:34:24;83.00;;;76.17;;
3745;SDS011;1888;49.890;10.884;2022-10-17T07:36:54;78.83;;;72.13;;
3745;SDS011;1888;49.890;10.884;2022-10-17T07:39:21;72.53;;;66.10;;
3745;SDS011;1888;49.890;10.884;2022-10-17T07:41:49;73.97;;;67.50;;
3745;SDS011;1888;49.890;10.884;2022-10-17T07:44:16;73.23;;;66.87;;
3745;SDS011;1888;49.890;10.884;2022-10-17T07:46:44;65.63;;;59.53;;
3745;SDS011;1888;49.890;10.884;2022-10-17T07:49:11;67.20;;;61.00;;
3745;SDS011;1888;49.890;10.884;2022-10-17T07:51:38;71.67;;;65.30;;
3745;SDS011;1888;49.890;10.884;2022-10-17T07:54:06;71.10;;;64.73;;
3745;SDS011;1888;49.890;10.884;2022-10-17T07:56:33;69.60;;;63.37;;
3745;SDS011;1888;49.890;10.884;2022-10-17T07:59:00;87.70;;;80.77;;
3745;SDS011;1888;49.890;10.884;2022-10-17T08:01:27;98.20;;;90.60;;
3745;SDS011;1888;49.890;10.884;2022-10-17T08:03:55;83.80;;;77.00;;
3745;SDS011;1888;49.890;10.884;2022-10-17T08:06:24;84.37;;;77.60;;
3745;SDS011;1888;49.890;10.884;2022-10-17T08:08:51;93.10;;;85.93;;
3745;SDS011;1888;49.890;10.884;2022-10-17T08:11:18;79.67;;;73.10;;
3745;SDS011;1888;49.890;10.884;2022-10-17T08:13:45;89.90;;;82.90;;
3745;SDS011;1888;49.890;10.884;2022-10-17T08:16:12;76.07;;;69.73;;
3745;SDS011;1888;49.890;10.884;2022-10-17T08:18:40;79.40;;;73.03;;
3745;SDS011;1888;49.890;10.884;2022-10-17T08:21:09;65.63;;;59.93;;
3745;SDS011;1888;49.890;10.884;2022-10-17T08:23:37;58.67;;;53.27;;
3745;SDS011;1888;49.890;10.884;2022-10-17T08:26:05;59.20;;;53.83;;
3745;SDS011;1888;49.890;10.884;2022-10-17T08:28:34;47.83;;;43.03;;
3745;SDS011;1888;49.890;10.884;2022-10-17T08:31:03;46.17;;;41.40;;
3745;SDS011;1888;49.890;10.884;2022-10-17T08:33:30;39.70;;;32.37;;
3745;SDS011;1888;49.890;10.884;2022-10-17T08:35:58;40.20;;;35.63;;
3745;SDS011;1888;49.890;10.884;2022-10-17T08:38:26;43.73;;;39.33;;
3745;SDS011;1888;49.890;10.884;2022-10-17T08:40:54;37.10;;;30.53;;
3745;SDS011;1888;49.890;10.884;2022-10-17T08:43:26;37.07;;;32.33;;
3745;SDS011;1888;49.890;10.884;2022-10-17T08:45:54;33.70;;;24.20;;
3745;SDS011;1888;49.890;10.884;2022-10-17T08:48:24;32.83;;;21.20;;
3745;SDS011;1888;49.890;10.884;2022-10-17T08:50:53;33.60;;;26.00;;
3745;SDS011;1888;49.890;10.884;2022-10-17T08:53:22;33.47;;;27.70;;
3745;SDS011;1888;49.890;10.884;2022-10-17T08:55:53;29.80;;;17.80;;
3745;SDS011;1888;49.890;10.884;2022-10-17T08:58:21;32.43;;;26.30;;
3745;SDS011;1888;49.890;10.884;2022-10-17T09:00:56;29.93;;;18.80;;
3745;SDS011;1888;49.890;10.884;2022-10-17T09:03:29;29.90;;;21.20;;
3745;SDS011;1888;49.890;10.884;2022-10-17T09:06:00;29.73;;;21.27;;
3745;SDS011;1888;49.890;10.884;2022-10-17T09:08:32;27.57;;;17.13;;
3745;SDS011;1888;49.890;10.884;2022-10-17T09:11:05;26.23;;;15.10;;
3745;SDS011;1888;49.890;10.884;2022-10-17T09:13:48;25.47;;;14.23;;
3745;SDS011;1888;49.890;10.884;2022-10-17T09:16:20;24.50;;;12.33;;
3745;SDS011;1888;49.890;10.884;2022-10-17T09:18:53;23.07;;;8.60;;
3745;SDS011;1888;49.890;10.884;2022-10-17T09:21:24;22.40;;;7.10;;
3745;SDS011;1888;49.890;10.884;2022-10-17T09:23:54;22.23;;;7.17;;
3745;SDS011;1888;49.890;10.884;2022-10-17T09:26:24;21.47;;;6.87;;
3745;SDS011;1888;49.890;10.884;2022-10-17T09:28:52;20.60;;;6.67;;
3745;SDS011;1888;49.890;10.884;2022-10-17T09:31:23;20.33;;;6.57;;
3745;SDS011;1888;49.890;10.884;2022-10-17T09:33:53;20.20;;;6.37;;
3745;SDS011;1888;49.890;10.884;2022-10-17T09:36:22;19.57;;;6.43;;
3745;SDS011;1888;49.890;10.884;2022-10-17T09:38:52;19.37;;;6.10;;
3745;SDS011;1888;49.890;10.884;2022-10-17T09:41:27;19.43;;;6.47;;
3745;SDS011;1888;49.890;10.884;2022-10-17T09:44:06;18.80;;;6.37;;
3745;SDS011;1888;49.890;10.884;2022-10-17T09:46:43;17.77;;;6.03;;
3745;SDS011;1888;49.890;10.884;2022-10-17T09:49:16;17.07;;;6.13;;
3745;SDS011;1888;49.890;10.884;2022-10-17T09:51:44;16.40;;;6.07;;
3745;SDS011;1888;49.890;10.884;2022-10-17T09:54:15;15.70;;;6.03;;
3745;SDS011;1888;49.890;10.884;2022-10-17T09:56:56;15.13;;;5.97;;
3745;SDS011;1888;49.890;10.884;2022-10-17T09:59:32;13.80;;;6.00;;
3745;SDS011;1888;49.890;10.884;2022-10-17T10:02:06;13.50;;;6.07;;
3745;SDS011;1888;49.890;10.884;2022-10-17T10:04:34;12.70;;;5.93;;
3745;SDS011;1888;49.890;10.884;2022-10-17T10:07:02;11.30;;;5.77;;
3745;SDS011;1888;49.890;10.884;2022-10-17T10:09:30;9.47;;;5.60;;
3745;SDS011;1888;49.890;10.884;2022-10-17T10:11:58;7.33;;;5.37;;
3745;SDS011;1888;49.890;10.884;2022-10-17T10:14:28;5.03;;;4.53;;
3745;SDS011;1888;49.890;10.884;2022-10-17T10:16:59;2.70;;;2.60;;
3745;SDS011;1888;49.890;10.884;2022-10-17T10:19:28;0.00;;;0.00;;
3745;SDS011;1888;49.890;10.884;2022-10-17T10:21:55;0.10;;;0.10;;
3745;SDS011;1888;49.890;10.884;2022-10-17T10:24:23;0.10;;;0.10;;
3745;SDS011;1888;49.890;10.884;2022-10-17T10:26:51;0.20;;;0.20;;
3745;SDS011;1888;49.890;10.884;2022-10-17T10:29:21;0.17;;;0.17;;
3745;SDS011;1888;49.890;10.884;2022-10-17T10:31:49;0.30;;;0.30;;
3745;SDS011;1888;49.890;10.884;2022-10-17T10:34:19;0.20;;;0.20;;
3745;SDS011;1888;49.890;10.884;2022-10-17T10:36:49;0.30;;;0.30;;
3745;SDS011;1888;49.890;10.884;2022-10-17T10:39:23;0.20;;;0.20;;
3745;SDS011;1888;49.890;10.884;2022-10-17T10:41:51;0.30;;;0.30;;
3745;SDS011;1888;49.890;10.884;2022-10-17T10:44:20;0.20;;;0.20;;
3745;SDS011;1888;49.890;10.884;2022-10-17T10:49:32;0.40;;;0.40;;
3745;SDS011;1888;49.890;10.884;2022-10-17T10:51:59;0.53;;;0.53;;
3745;SDS011;1888;49.890;10.884;2022-10-17T10:54:28;0.50;;;0.50;;
3745;SDS011;1888;49.890;10.884;2022-10-17T10:56:58;0.60;;;0.60;;
3745;SDS011;1888;49.890;10.884;2022-10-17T10:59:28;0.57;;;0.57;;
3745;SDS011;1888;49.890;10.884;2022-10-17T11:01:59;0.37;;;0.37;;
3745;SDS011;1888;49.890;10.884;2022-10-17T11:04:30;0.50;;;0.50;;
3745;SDS011;1888;49.890;10.884;2022-10-17T11:07:02;0.60;;;0.60;;
3745;SDS011;1888;49.890;10.884;2022-10-17T11:12:23;0.50;;;0.50;;
3745;SDS011;1888;49.890;10.884;2022-10-17T11:14:52;0.50;;;0.50;;
3745;SDS011;1888;49.890;10.884;2022-10-17T11:17:23;0.60;;;0.60;;
3745;SDS011;1888;49.890;10.884;2022-10-17T11:19:55;0.50;;;0.50;;
3745;SDS011;1888;49.890;10.884;2022-10-17T11:22:27;0.50;;;0.50;;
3745;SDS011;1888;49.890;10.884;2022-10-17T11:24:59;0.60;;;0.60;;
3745;SDS011;1888;49.890;10.884;2022-10-17T11:27:29;0.80;;;0.80;;
3745;SDS011;1888;49.890;10.884;2022-10-17T11:29:57;0.60;;;0.60;;
3745;SDS011;1888;49.890;10.884;2022-10-17T11:32:26;0.70;;;0.70;;
3745;SDS011;1888;49.890;10.884;2022-10-17T11:34:56;0.80;;;0.80;;
3745;SDS011;1888;49.890;10.884;2022-10-17T11:37:27;0.60;;;0.60;;
3745;SDS011;1888;49.890;10.884;2022-10-17T11:39:57;0.70;;;0.70;;
3745;SDS011;1888;49.890;10.884;2022-10-17T11:42:26;0.70;;;0.70;;
3745;SDS011;1888;49.890;10.884;2022-10-17T11:44:56;0.80;;;0.80;;
3745;SDS011;1888;49.890;10.884;2022-10-17T11:47:30;0.80;;;0.80;;
3745;SDS011;1888;49.890;10.884;2022-10-17T11:50:04;1.00;;;1.00;;
3745;SDS011;1888;49.890;10.884;2022-10-17T11:52:36;1.07;;;1.07;;
3745;SDS011;1888;49.890;10.884;2022-10-17T11:55:09;1.20;;;1.20;;
3745;SDS011;1888;49.890;10.884;2022-10-17T11:57:41;1.20;;;1.20;;
3745;SDS011;1888;49.890;10.884;2022-10-17T12:00:24;1.20;;;1.20;;
3745;SDS011;1888;49.890;10.884;2022-10-17T12:02:56;1.30;;;1.30;;
3745;SDS011;1888;49.890;10.884;2022-10-17T12:05:27;1.30;;;1.30;;
3745;SDS011;1888;49.890;10.884;2022-10-17T12:08:02;1.40;;;1.40;;
3745;SDS011;1888;49.890;10.884;2022-10-17T12:10:32;1.20;;;1.20;;
3745;SDS011;1888;49.890;10.884;2022-10-17T12:15:47;1.37;;;1.37;;
3745;SDS011;1888;49.890;10.884;2022-10-17T12:18:15;1.70;;;1.70;;
3745;SDS011;1888;49.890;10.884;2022-10-17T12:20:43;1.20;;;1.20;;
3745;SDS011;1888;49.890;10.884;2022-10-17T12:23:26;1.20;;;1.20;;
3745;SDS011;1888;49.890;10.884;2022-10-17T12:25:54;1.10;;;1.10;;
3745;SDS011;1888;49.890;10.884;2022-10-17T12:28:27;1.40;;;1.40;;
3745;SDS011;1888;49.890;10.884;2022-10-17T12:30:56;1.30;;;1.30;;
3745;SDS011;1888;49.890;10.884;2022-10-17T12:33:26;1.40;;;1.40;;
3745;SDS011;1888;49.890;10.884;2022-10-17T12:38:37;1.43;;;1.43;;
3745;SDS011;1888;49.890;10.884;2022-10-17T12:41:05;1.50;;;1.50;;
3745;SDS011;1888;49.890;10.884;2022-10-17T12:49:23;1.57;;;1.57;;
3745;SDS011;1888;49.890;10.884;2022-10-17T12:52:14;1.10;;;1.10;;
3745;SDS011;1888;49.890;10.884;2022-10-17T12:54:43;1.30;;;1.30;;
3745;SDS011;1888;49.890;10.884;2022-10-17T12:57:16;1.40;;;1.40;;
3745;SDS011;1888;49.890;10.884;2022-10-17T12:59:45;1.60;;;1.60;;
3745;SDS011;1888;49.890;10.884;2022-10-17T13:02:14;1.40;;;1.40;;
3745;SDS011;1888;49.890;10.884;2022-10-17T13:04:42;1.40;;;1.40;;
3745;SDS011;1888;49.890;10.884;2022-10-17T13:07:15;1.30;;;1.30;;
3745;SDS011;1888;49.890;10.884;2022-10-17T13:09:45;1.50;;;1.50;;
3745;SDS011;1888;49.890;10.884;2022-10-17T13:12:14;1.40;;;1.40;;
3745;SDS011;1888;49.890;10.884;2022-10-17T13:14:43;1.33;;;1.33;;
3745;SDS011;1888;49.890;10.884;2022-10-17T13:17:19;1.30;;;1.30;;
3745;SDS011;1888;49.890;10.884;2022-10-17T13:19:47;1.50;;;1.50;;
3745;SDS011;1888;49.890;10.884;2022-10-17T13:22:15;1.40;;;1.40;;
3745;SDS011;1888;49.890;10.884;2022-10-17T13:24:42;1.10;;;1.10;;
3745;SDS011;1888;49.890;10.884;2022-10-17T13:27:23;1.50;;;1.50;;
3745;SDS011;1888;49.890;10.884;2022-10-17T13:29:51;1.50;;;1.50;;
3745;SDS011;1888;49.890;10.884;2022-10-17T13:32:20;1.67;;;1.67;;
3745;SDS011;1888;49.890;10.884;2022-10-17T13:37:29;1.30;;;1.30;;
3745;SDS011;1888;49.890;10.884;2022-10-17T13:39:56;1.40;;;1.40;;
3745;SDS011;1888;49.890;10.884;2022-10-17T13:42:25;1.50;;;1.50;;
3745;SDS011;1888;49.890;10.884;2022-10-17T13:44:54;1.40;;;1.40;;
3745;SDS011;1888;49.890;10.884;2022-10-17T13:47:21;1.10;;;1.10;;
3745;SDS011;1888;49.890;10.884;2022-10-17T13:49:49;1.47;;;1.47;;
3745;SDS011;1888;49.890;10.884;2022-10-17T13:52:17;1.40;;;1.40;;
3745;SDS011;1888;49.890;10.884;2022-10-17T13:54:46;1.40;;;1.40;;
3745;SDS011;1888;49.890;10.884;2022-10-17T13:57:16;1.47;;;1.47;;
3745;SDS011;1888;49.890;10.884;2022-10-17T13:59:45;1.33;;;1.33;;
3745;SDS011;1888;49.890;10.884;2022-10-17T14:02:13;1.50;;;1.50;;
3745;SDS011;1888;49.890;10.884;2022-10-17T14:04:41;1.30;;;1.30;;
3745;SDS011;1888;49.890;10.884;2022-10-17T14:07:12;1.60;;;1.60;;
3745;SDS011;1888;49.890;10.884;2022-10-17T14:09:45;1.47;;;1.47;;
3745;SDS011;1888;49.890;10.884;2022-10-17T14:12:12;1.10;;;1.10;;
3745;SDS011;1888;49.890;10.884;2022-10-17T14:14:45;1.10;;;1.10;;
3745;SDS011;1888;49.890;10.884;2022-10-17T14:17:14;0.70;;;0.70;;
3745;SDS011;1888;49.890;10.884;2022-10-17T14:19:41;1.20;;;1.20;;
3745;SDS011;1888;49.890;10.884;2022-10-17T14:22:15;1.00;;;1.00;;
3745;SDS011;1888;49.890;10.884;2022-10-17T14:24:45;0.90;;;0.90;;
3745;SDS011;1888;49.890;10.884;2022-10-17T14:27:26;0.70;;;0.70;;
3745;SDS011;1888;49.890;10.884;2022-10-17T14:29:53;0.70;;;0.70;;
3745;SDS011;1888;49.890;10.884;2022-10-17T14:32:23;0.77;;;0.77;;
3745;SDS011;1888;49.890;10.884;2022-10-17T14:34:51;0.63;;;0.63;;
3745;SDS011;1888;49.890;10.884;2022-10-17T14:37:23;0.80;;;0.80;;
3745;SDS011;1888;49.890;10.884;2022-10-17T14:39:51;0.80;;;0.80;;
3745;SDS011;1888;49.890;10.884;2022-10-17T14:42:19;0.60;;;0.60;;
3745;SDS011;1888;49.890;10.884;2022-10-17T14:44:47;0.57;;;0.57;;
3745;SDS011;1888;49.890;10.884;2022-10-17T14:47:16;0.40;;;0.40;;
3745;SDS011;1888;49.890;10.884;2022-10-17T14:49:47;0.70;;;0.70;;
3745;SDS011;1888;49.890;10.884;2022-10-17T14:52:23;0.50;;;0.50;;
3745;SDS011;1888;49.890;10.884;2022-10-17T14:54:51;0.60;;;0.60;;
3745;SDS011;1888;49.890;10.884;2022-10-17T14:57:21;0.30;;;0.30;;
3745;SDS011;1888;49.890;10.884;2022-10-17T14:59:48;0.30;;;0.30;;
3745;SDS011;1888;49.890;10.884;2022-10-17T15:02:15;0.30;;;0.30;;
3745;SDS011;1888;49.890;10.884;2022-10-17T15:04:43;0.50;;;0.50;;
3745;SDS011;1888;49.890;10.884;2022-10-17T15:07:13;0.40;;;0.40;;
3745;SDS011;1888;49.890;10.884;2022-10-17T15:09:40;0.30;;;0.30;;
3745;SDS011;1888;49.890;10.884;2022-10-17T15:12:11;0.20;;;0.20;;
3745;SDS011;1888;49.890;10.884;2022-10-17T15:14:39;0.20;;;0.20;;
3745;SDS011;1888;49.890;10.884;2022-10-17T15:17:09;0.20;;;0.20;;
3745;SDS011;1888;49.890;10.884;2022-10-17T15:19:36;0.00;;;0.00;;
3745;SDS011;1888;49.890;10.884;2022-10-17T15:22:03;0.00;;;0.00;;
3745;SDS011;1888;49.890;10.884;2022-10-17T15:24:31;0.00;;;0.00;;
3745;SDS011;1888;49.890;10.884;2022-10-17T15:26:59;0.00;;;0.00;;
3745;SDS011;1888;49.890;10.884;2022-10-17T15:29:26;0.00;;;0.00;;
3745;SDS011;1888;49.890;10.884;2022-10-17T15:31:53;0.00;;;0.00;;
3745;SDS011;1888;49.890;10.884;2022-10-17T15:34:20;0.00;;;0.00;;
3745;SDS011;1888;49.890;10.884;2022-10-17T15:36:48;0.00;;;0.00;;
3745;SDS011;1888;49.890;10.884;2022-10-17T15:39:15;0.00;;;0.00;;
3745;SDS011;1888;49.890;10.884;2022-10-17T15:41:44;0.00;;;0.00;;
3745;SDS011;1888;49.890;10.884;2022-10-17T15:44:12;0.00;;;0.00;;
3745;SDS011;1888;49.890;10.884;2022-10-17T15:46:39;0.00;;;0.00;;
3745;SDS011;1888;49.890;10.884;2022-10-17T15:49:09;0.00;;;0.00;;
3745;SDS011;1888;49.890;10.884;2022-10-17T15:51:36;0.00;;;0.00;;
3745;SDS011;1888;49.890;10.884;2022-10-17T15:54:03;0.00;;;0.00;;
3745;SDS011;1888;49.890;10.884;2022-10-17T15:56:31;0.00;;;0.00;;
3745;SDS011;1888;49.890;10.884;2022-10-17T15:59:02;0.00;;;0.00;;
3745;SDS011;1888;49.890;10.884;2022-10-17T16:01:30;0.00;;;0.00;;
3745;SDS011;1888;49.890;10.884;2022-10-17T16:03:57;0.00;;;0.00;;
3745;SDS011;1888;49.890;10.884;2022-10-17T16:06:25;0.00;;;0.00;;
3745;SDS011;1888;49.890;10.884;2022-10-17T16:08:52;0.00;;;0.00;;
3745;SDS011;1888;49.890;10.884;2022-10-17T16:11:20;0.00;;;0.00;;
3745;SDS011;1888;49.890;10.884;2022-10-17T16:13:50;0.00;;;0.00;;
3745;SDS011;1888;49.890;10.884;2022-10-17T16:16:19;0.00;;;0.00;;
3745;SDS011;1888;49.890;10.884;2022-10-17T16:18:47;0.00;;;0.00;;
3745;SDS011;1888;49.890;10.884;2022-10-17T16:21:14;0.00;;;0.00;;
3745;SDS011;1888;49.890;10.884;2022-10-17T16:23:42;0.00;;;0.00;;
3745;SDS011;1888;49.890;10.884;2022-10-17T16:26:10;0.00;;;0.00;;
3745;SDS011;1888;49.890;10.884;2022-10-17T16:28:38;0.00;;;0.00;;
3745;SDS011;1888;49.890;10.884;2022-10-17T16:31:11;0.00;;;0.00;;
3745;SDS011;1888;49.890;10.884;2022-10-17T16:33:44;0.00;;;0.00;;
3745;SDS011;1888;49.890;10.884;2022-10-17T16:36:12;0.00;;;0.00;;
3745;SDS011;1888;49.890;10.884;2022-10-17T16:38:39;0.00;;;0.00;;
3745;SDS011;1888;49.890;10.884;2022-10-17T16:41:08;0.00;;;0.00;;
3745;SDS011;1888;49.890;10.884;2022-10-17T16:43:39;0.00;;;0.00;;
3745;SDS011;1888;49.890;10.884;2022-10-17T16:46:06;0.00;;;0.00;;
3745;SDS011;1888;49.890;10.884;2022-10-17T16:48:33;0.00;;;0.00;;
3745;SDS011;1888;49.890;10.884;2022-10-17T16:51:02;0.00;;;0.00;;
3745;SDS011;1888;49.890;10.884;2022-10-17T16:53:29;0.00;;;0.00;;
3745;SDS011;1888;49.890;10.884;2022-10-17T16:56:00;0.00;;;0.00;;
3745;SDS011;1888;49.890;10.884;2022-10-17T16:58:29;0.00;;;0.00;;
3745;SDS011;1888;49.890;10.884;2022-10-17T17:00:58;0.00;;;0.00;;
3745;SDS011;1888;49.890;10.884;2022-10-17T17:03:26;0.00;;;0.00;;
3745;SDS011;1888;49.890;10.884;2022-10-17T17:05:53;0.00;;;0.00;;
3745;SDS011;1888;49.890;10.884;2022-10-17T17:08:22;0.00;;;0.00;;
3745;SDS011;1888;49.890;10.884;2022-10-17T17:10:49;0.00;;;0.00;;
3745;SDS011;1888;49.890;10.884;2022-10-17T17:13:18;0.00;;;0.00;;
3745;SDS011;1888;49.890;10.884;2022-10-17T17:15:45;0.00;;;0.00;;
3745;SDS011;1888;49.890;10.884;2022-10-17T17:18:17;0.00;;;0.00;;
3745;SDS011;1888;49.890;10.884;2022-10-17T17:20:44;0.00;;;0.00;;
3745;SDS011;1888;49.890;10.884;2022-10-17T17:23:12;0.00;;;0.00;;
3745;SDS011;1888;49.890;10.884;2022-10-17T17:25:40;0.00;;;0.00;;
3745;SDS011;1888;49.890;10.884;2022-10-17T17:28:09;0.00;;;0.00;;
3745;SDS011;1888;49.890;10.884;2022-10-17T17:30:38;0.00;;;0.00;;
3745;SDS011;1888;49.890;10.884;2022-10-17T17:33:05;0.00;;;0.00;;
3745;SDS011;1888;49.890;10.884;2022-10-17T17:35:32;0.00;;;0.00;;
3745;SDS011;1888;49.890;10.884;2022-10-17T17:37:59;0.00;;;0.00;;
3745;SDS011;1888;49.890;10.884;2022-10-17T17:40:28;0.00;;;0.00;;
3745;SDS011;1888;49.890;10.884;2022-10-17T17:42:57;0.00;;;0.00;;
3745;SDS011;1888;49.890;10.884;2022-10-17T17:45:24;0.00;;;0.00;;
3745;SDS011;1888;49.890;10.884;2022-10-17T17:47:51;0.00;;;0.00;;
3745;SDS011;1888;49.890;10.884;2022-10-17T17:50:19;0.00;;;0.00;;
3745;SDS011;1888;49.890;10.884;2022-10-17T17:52:46;0.00;;;0.00;;
3745;SDS011;1888;49.890;10.884;2022-10-17T17:55:15;0.00;;;0.00;;
3745;SDS011;1888;49.890;10.884;2022-10-17T17:57:42;0.00;;;0.00;;
3745;SDS011;1888;49.890;10.884;2022-10-17T18:00:11;0.00;;;0.00;;
3745;SDS011;1888;49.890;10.884;2022-10-17T18:02:39;0.00;;;0.00;;
3745;SDS011;1888;49.890;10.884;2022-10-17T18:05:06;0.00;;;0.00;;
3745;SDS011;1888;49.890;10.884;2022-10-17T18:07:34;0.00;;;0.00;;
3745;SDS011;1888;49.890;10.884;2022-10-17T18:10:02;0.00;;;0.00;;
3745;SDS011;1888;49.890;10.884;2022-10-17T18:12:29;0.00;;;0.00;;
3745;SDS011;1888;49.890;10.884;2022-10-17T18:14:58;0.00;;;0.00;;
3745;SDS011;1888;49.890;10.884;2022-10-17T18:17:27;0.00;;;0.00;;
3745;SDS011;1888;49.890;10.884;2022-10-17T18:19:54;0.00;;;0.00;;
3745;SDS011;1888;49.890;10.884;2022-10-17T18:22:21;0.00;;;0.00;;
3745;SDS011;1888;49.890;10.884;2022-10-17T18:24:48;0.00;;;0.00;;
3745;SDS011;1888;49.890;10.884;2022-10-17T18:27:16;0.00;;;0.00;;
3745;SDS011;1888;49.890;10.884;2022-10-17T18:29:43;0.00;;;0.00;;
3745;SDS011;1888;49.890;10.884;2022-10-17T18:32:11;0.00;;;0.00;;
3745;SDS011;1888;49.890;10.884;2022-10-17T18:34:39;0.00;;;0.00;;
3745;SDS011;1888;49.890;10.884;2022-10-17T18:37:07;0.00;;;0.00;;
3745;SDS011;1888;49.890;10.884;2022-10-17T18:39:34;0.00;;;0.00;;
3745;SDS011;1888;49.890;10.884;2022-10-17T18:42:01;0.00;;;0.00;;
3745;SDS011;1888;49.890;10.884;2022-10-17T18:44:31;0.00;;;0.00;;
3745;SDS011;1888;49.890;10.884;2022-10-17T18:46:58;0.00;;;0.00;;
3745;SDS011;1888;49.890;10.884;2022-10-17T18:49:25;0.00;;;0.00;;
3745;SDS011;1888;49.890;10.884;2022-10-17T18:51:54;0.00;;;0.00;;
3745;SDS011;1888;49.890;10.884;2022-10-17T18:54:21;0.00;;;0.00;;
3745;SDS011;1888;49.890;10.884;2022-10-17T18:56:48;0.00;;;0.00;;
3745;SDS011;1888;49.890;10.884;2022-10-17T18:59:16;0.00;;;0.00;;
3745;SDS011;1888;49.890;10.884;2022-10-17T19:01:43;0.00;;;0.00;;
3745;SDS011;1888;49.890;10.884;2022-10-17T19:04:11;0.00;;;0.00;;
3745;SDS011;1888;49.890;10.884;2022-10-17T19:06:39;0.00;;;0.00;;
3745;SDS011;1888;49.890;10.884;2022-10-17T19:09:08;0.00;;;0.00;;
3745;SDS011;1888;49.890;10.884;2022-10-17T19:11:35;0.00;;;0.00;;
3745;SDS011;1888;49.890;10.884;2022-10-17T19:14:03;0.00;;;0.00;;
3745;SDS011;1888;49.890;10.884;2022-10-17T19:16:33;0.00;;;0.00;;
3745;SDS011;1888;49.890;10.884;2022-10-17T19:19:03;0.00;;;0.00;;
3745;SDS011;1888;49.890;10.884;2022-10-17T19:21:30;0.00;;;0.00;;
3745;SDS011;1888;49.890;10.884;2022-10-17T19:23:58;0.00;;;0.00;;
3745;SDS011;1888;49.890;10.884;2022-10-17T19:26:28;0.00;;;0.00;;
3745;SDS011;1888;49.890;10.884;2022-10-17T19:28:55;0.00;;;0.00;;
3745;SDS011;1888;49.890;10.884;2022-10-17T19:31:24;0.00;;;0.00;;
3745;SDS011;1888;49.890;10.884;2022-10-17T19:33:51;0.00;;;0.00;;
3745;SDS011;1888;49.890;10.884;2022-10-17T19:36:19;0.00;;;0.00;;
3745;SDS011;1888;49.890;10.884;2022-10-17T19:38:46;0.00;;;0.00;;
3745;SDS011;1888;49.890;10.884;2022-10-17T19:41:14;0.00;;;0.00;;
3745;SDS011;1888;49.890;10.884;2022-10-17T19:43:43;0.00;;;0.00;;
3745;SDS011;1888;49.890;10.884;2022-10-17T19:46:11;0.00;;;0.00;;
3745;SDS011;1888;49.890;10.884;2022-10-17T19:48:38;0.00;;;0.00;;
3745;SDS011;1888;49.890;10.884;2022-10-17T19:51:09;0.00;;;0.00;;
3745;SDS011;1888;49.890;10.884;2022-10-17T19:53:37;0.00;;;0.00;;
3745;SDS011;1888;49.890;10.884;2022-10-17T19:56:04;0.00;;;0.00;;
3745;SDS011;1888;49.890;10.884;2022-10-17T19:58:33;0.00;;;0.00;;